sensor_id;sensor_type;location;lat;lon;timestamp;temperature;humidity
67054;SHT31;53960;51.826;5.850;2024-02-21T00:00:40;9.71;95.06
67054;SHT31;53960;51.826;5.850;2024-02-21T00:03:08;9.67;95.06
67054;SHT31;53960;51.826;5.850;2024-02-21T00:05:34;9.67;95.25
67054;SHT31;53960;51.826;5.850;2024-02-21T00:08:00;9.70;95.30
67054;SHT31;53960;51.826;5.850;2024-02-21T00:10:25;9.78;95.08
67054;SHT31;53960;51.826;5.850;2024-02-21T00:12:51;9.67;95.17
67054;SHT31;53960;51.826;5.850;2024-02-21T00:15:17;9.69;95.20
67054;SHT31;53960;51.826;5.850;2024-02-21T00:17:44;9.75;95.08
67054;SHT31;53960;51.826;5.850;2024-02-21T00:20:10;9.71;95.15
67054;SHT31;53960;51.826;5.850;2024-02-21T00:22:37;9.63;95.56
67054;SHT31;53960;51.826;5.850;2024-02-21T00:25:03;9.67;95.42
67054;SHT31;53960;51.826;5.850;2024-02-21T00:27:29;9.61;95.55
67054;SHT31;53960;51.826;5.850;2024-02-21T00:29:55;9.57;95.69
67054;SHT31;53960;51.826;5.850;2024-02-21T00:32:20;9.60;95.74
67054;SHT31;53960;51.826;5.850;2024-02-21T00:34:46;9.66;95.75
67054;SHT31;53960;51.826;5.850;2024-02-21T00:37:12;9.74;95.20
67054;SHT31;53960;51.826;5.850;2024-02-21T00:39:37;9.77;95.05
67054;SHT31;53960;51.826;5.850;2024-02-21T00:42:03;9.70;95.28
67054;SHT31;53960;51.826;5.850;2024-02-21T00:44:29;9.67;95.47
67054;SHT31;53960;51.826;5.850;2024-02-21T00:46:54;9.63;95.62
67054;SHT31;53960;51.826;5.850;2024-02-21T00:49:21;9.66;95.64
67054;SHT31;53960;51.826;5.850;2024-02-21T00:51:47;9.71;95.34
67054;SHT31;53960;51.826;5.850;2024-02-21T00:54:13;9.66;95.62
67054;SHT31;53960;51.826;5.850;2024-02-21T00:56:39;9.64;95.56
67054;SHT31;53960;51.826;5.850;2024-02-21T00:59:05;9.61;95.57
67054;SHT31;53960;51.826;5.850;2024-02-21T01:01:31;9.67;95.63
67054;SHT31;53960;51.826;5.850;2024-02-21T01:03:56;9.66;95.42
67054;SHT31;53960;51.826;5.850;2024-02-21T01:06:22;9.64;95.53
67054;SHT31;53960;51.826;5.850;2024-02-21T01:08:49;9.61;95.75
67054;SHT31;53960;51.826;5.850;2024-02-21T01:11:17;9.67;95.47
67054;SHT31;53960;51.826;5.850;2024-02-21T01:13:44;9.61;95.62
67054;SHT31;53960;51.826;5.850;2024-02-21T01:16:10;9.74;95.21
67054;SHT31;53960;51.826;5.850;2024-02-21T01:18:38;9.61;95.59
67054;SHT31;53960;51.826;5.850;2024-02-21T01:21:07;9.63;95.50
67054;SHT31;53960;51.826;5.850;2024-02-21T01:23:34;9.64;95.48
67054;SHT31;53960;51.826;5.850;2024-02-21T01:26:00;9.71;95.24
67054;SHT31;53960;51.826;5.850;2024-02-21T01:28:26;9.70;95.22
67054;SHT31;53960;51.826;5.850;2024-02-21T01:30:51;9.67;95.28
67054;SHT31;53960;51.826;5.850;2024-02-21T01:33:17;9.61;95.45
67054;SHT31;53960;51.826;5.850;2024-02-21T01:35:43;9.63;95.56
67054;SHT31;53960;51.826;5.850;2024-02-21T01:38:09;9.58;95.64
67054;SHT31;53960;51.826;5.850;2024-02-21T01:40:36;9.61;95.31
67054;SHT31;53960;51.826;5.850;2024-02-21T01:43:02;9.64;95.13
67054;SHT31;53960;51.826;5.850;2024-02-21T01:45:28;9.60;95.33
67054;SHT31;53960;51.826;5.850;2024-02-21T01:47:54;9.64;95.27
67054;SHT31;53960;51.826;5.850;2024-02-21T01:50:21;9.61;95.08
67054;SHT31;53960;51.826;5.850;2024-02-21T01:52:49;9.64;95.13
67054;SHT31;53960;51.826;5.850;2024-02-21T01:55:16;9.61;95.41
67054;SHT31;53960;51.826;5.850;2024-02-21T01:57:43;9.53;95.54
67054;SHT31;53960;51.826;5.850;2024-02-21T02:00:13;9.47;95.87
67054;SHT31;53960;51.826;5.850;2024-02-21T02:02:39;9.56;95.65
67054;SHT31;53960;51.826;5.850;2024-02-21T02:05:07;9.61;95.43
67054;SHT31;53960;51.826;5.850;2024-02-21T02:07:33;9.61;95.36
67054;SHT31;53960;51.826;5.850;2024-02-21T02:09:59;9.67;94.91
67054;SHT31;53960;51.826;5.850;2024-02-21T02:12:25;9.64;94.93
67054;SHT31;53960;51.826;5.850;2024-02-21T02:15:02;9.56;95.37
67054;SHT31;53960;51.826;5.850;2024-02-21T02:17:31;9.66;95.15
67054;SHT31;53960;51.826;5.850;2024-02-21T02:19:56;9.66;95.05
67054;SHT31;53960;51.826;5.850;2024-02-21T02:22:28;9.63;95.06
67054;SHT31;53960;51.826;5.850;2024-02-21T02:24:54;9.67;94.83
67054;SHT31;53960;51.826;5.850;2024-02-21T02:27:20;9.54;95.19
67054;SHT31;53960;51.826;5.850;2024-02-21T02:29:46;9.51;95.40
67054;SHT31;53960;51.826;5.850;2024-02-21T02:32:12;9.53;95.32
67054;SHT31;53960;51.826;5.850;2024-02-21T02:34:38;9.54;95.39
67054;SHT31;53960;51.826;5.850;2024-02-21T02:37:03;9.50;95.35
67054;SHT31;53960;51.826;5.850;2024-02-21T02:39:29;9.54;95.27
67054;SHT31;53960;51.826;5.850;2024-02-21T02:41:55;9.58;95.17
67054;SHT31;53960;51.826;5.850;2024-02-21T02:44:20;9.53;95.49
67054;SHT31;53960;51.826;5.850;2024-02-21T02:46:46;9.51;95.53
67054;SHT31;53960;51.826;5.850;2024-02-21T02:49:12;9.57;95.10
67054;SHT31;53960;51.826;5.850;2024-02-21T02:51:42;9.71;94.63
67054;SHT31;53960;51.826;5.850;2024-02-21T02:54:08;9.61;94.85
67054;SHT31;53960;51.826;5.850;2024-02-21T02:56:34;9.63;94.77
67054;SHT31;53960;51.826;5.850;2024-02-21T02:59:00;9.63;94.83
67054;SHT31;53960;51.826;5.850;2024-02-21T03:01:26;9.69;94.58
67054;SHT31;53960;51.826;5.850;2024-02-21T03:03:53;9.61;94.63
67054;SHT31;53960;51.826;5.850;2024-02-21T03:06:19;9.61;94.83
67054;SHT31;53960;51.826;5.850;2024-02-21T03:08:45;9.54;94.80
67054;SHT31;53960;51.826;5.850;2024-02-21T03:11:10;9.57;94.79
67054;SHT31;53960;51.826;5.850;2024-02-21T03:13:36;9.53;94.95
67054;SHT31;53960;51.826;5.850;2024-02-21T03:16:02;9.61;94.65
67054;SHT31;53960;51.826;5.850;2024-02-21T03:18:28;9.66;94.37
67054;SHT31;53960;51.826;5.850;2024-02-21T03:20:54;9.57;94.56
67054;SHT31;53960;51.826;5.850;2024-02-21T03:23:19;9.54;94.92
67054;SHT31;53960;51.826;5.850;2024-02-21T03:25:45;9.56;94.60
67054;SHT31;53960;51.826;5.850;2024-02-21T03:28:11;9.63;94.42
67054;SHT31;53960;51.826;5.850;2024-02-21T03:30:37;9.63;94.33
67054;SHT31;53960;51.826;5.850;2024-02-21T03:33:03;9.60;94.45
67054;SHT31;53960;51.826;5.850;2024-02-21T03:35:28;9.61;94.43
67054;SHT31;53960;51.826;5.850;2024-02-21T03:37:54;9.63;94.15
67054;SHT31;53960;51.826;5.850;2024-02-21T03:40:21;9.57;94.51
67054;SHT31;53960;51.826;5.850;2024-02-21T03:42:46;9.58;94.60
67054;SHT31;53960;51.826;5.850;2024-02-21T03:45:12;9.60;94.71
67054;SHT31;53960;51.826;5.850;2024-02-21T03:47:38;9.63;94.42
67054;SHT31;53960;51.826;5.850;2024-02-21T03:50:05;9.58;94.55
67054;SHT31;53960;51.826;5.850;2024-02-21T03:52:31;9.56;94.73
67054;SHT31;53960;51.826;5.850;2024-02-21T03:54:56;9.58;94.53
67054;SHT31;53960;51.826;5.850;2024-02-21T03:57:22;9.70;94.06
67054;SHT31;53960;51.826;5.850;2024-02-21T03:59:50;9.60;94.27
67054;SHT31;53960;51.826;5.850;2024-02-21T04:02:17;9.60;94.28
67054;SHT31;53960;51.826;5.850;2024-02-21T04:04:44;9.70;93.91
67054;SHT31;53960;51.826;5.850;2024-02-21T04:07:13;9.69;93.83
67054;SHT31;53960;51.826;5.850;2024-02-21T04:09:38;9.69;94.09
67054;SHT31;53960;51.826;5.850;2024-02-21T04:12:05;9.66;93.93
67054;SHT31;53960;51.826;5.850;2024-02-21T04:14:31;9.71;93.73
67054;SHT31;53960;51.826;5.850;2024-02-21T04:16:57;9.67;93.87
67054;SHT31;53960;51.826;5.850;2024-02-21T04:19:22;9.70;94.01
67054;SHT31;53960;51.826;5.850;2024-02-21T04:21:48;9.66;94.11
67054;SHT31;53960;51.826;5.850;2024-02-21T04:24:14;9.66;93.90
67054;SHT31;53960;51.826;5.850;2024-02-21T04:26:39;9.61;93.96
67054;SHT31;53960;51.826;5.850;2024-02-21T04:29:06;9.60;94.02
67054;SHT31;53960;51.826;5.850;2024-02-21T04:31:34;9.69;93.86
67054;SHT31;53960;51.826;5.850;2024-02-21T04:34:00;9.61;93.78
67054;SHT31;53960;51.826;5.850;2024-02-21T04:36:26;9.69;93.88
67054;SHT31;53960;51.826;5.850;2024-02-21T04:38:51;9.60;93.93
67054;SHT31;53960;51.826;5.850;2024-02-21T04:41:17;9.57;94.18
67054;SHT31;53960;51.826;5.850;2024-02-21T04:43:43;9.60;94.11
67054;SHT31;53960;51.826;5.850;2024-02-21T04:46:08;9.61;94.07
67054;SHT31;53960;51.826;5.850;2024-02-21T04:48:35;9.64;93.64
67054;SHT31;53960;51.826;5.850;2024-02-21T04:51:00;9.63;93.91
67054;SHT31;53960;51.826;5.850;2024-02-21T04:53:26;9.70;93.77
67054;SHT31;53960;51.826;5.850;2024-02-21T04:55:52;9.64;93.83
67054;SHT31;53960;51.826;5.850;2024-02-21T04:58:18;9.70;93.72
67054;SHT31;53960;51.826;5.850;2024-02-21T05:00:43;9.67;93.60
67054;SHT31;53960;51.826;5.850;2024-02-21T05:03:09;9.67;93.72
67054;SHT31;53960;51.826;5.850;2024-02-21T05:05:34;9.66;93.78
67054;SHT31;53960;51.826;5.850;2024-02-21T05:08:01;9.64;93.80
67054;SHT31;53960;51.826;5.850;2024-02-21T05:10:27;9.60;93.88
67054;SHT31;53960;51.826;5.850;2024-02-21T05:12:53;9.60;93.84
67054;SHT31;53960;51.826;5.850;2024-02-21T05:15:19;9.70;93.62
67054;SHT31;53960;51.826;5.850;2024-02-21T05:17:46;9.63;93.61
67054;SHT31;53960;51.826;5.850;2024-02-21T05:20:11;9.64;93.73
67054;SHT31;53960;51.826;5.850;2024-02-21T05:22:37;9.61;93.76
67054;SHT31;53960;51.826;5.850;2024-02-21T05:25:03;9.64;93.57
67054;SHT31;53960;51.826;5.850;2024-02-21T05:27:28;9.60;93.97
67054;SHT31;53960;51.826;5.850;2024-02-21T05:29:54;9.66;93.66
67054;SHT31;53960;51.826;5.850;2024-02-21T05:32:19;9.66;93.76
67054;SHT31;53960;51.826;5.850;2024-02-21T05:34:48;9.60;93.78
67054;SHT31;53960;51.826;5.850;2024-02-21T05:37:15;9.63;93.82
67054;SHT31;53960;51.826;5.850;2024-02-21T05:39:40;9.67;93.69
67054;SHT31;53960;51.826;5.850;2024-02-21T05:42:07;9.61;93.81
67054;SHT31;53960;51.826;5.850;2024-02-21T05:44:33;9.56;94.12
67054;SHT31;53960;51.826;5.850;2024-02-21T05:46:59;9.60;93.78
67054;SHT31;53960;51.826;5.850;2024-02-21T05:49:24;9.58;93.98
67054;SHT31;53960;51.826;5.850;2024-02-21T05:51:50;9.54;93.96
67054;SHT31;53960;51.826;5.850;2024-02-21T05:54:15;9.46;94.37
67054;SHT31;53960;51.826;5.850;2024-02-21T05:56:45;9.54;94.15
67054;SHT31;53960;51.826;5.850;2024-02-21T05:59:11;9.53;94.02
67054;SHT31;53960;51.826;5.850;2024-02-21T06:01:37;9.43;94.25
67054;SHT31;53960;51.826;5.850;2024-02-21T06:04:03;9.44;94.40
67054;SHT31;53960;51.826;5.850;2024-02-21T06:06:29;9.46;94.30
67054;SHT31;53960;51.826;5.850;2024-02-21T06:08:56;9.50;93.88
67054;SHT31;53960;51.826;5.850;2024-02-21T06:11:22;9.47;93.92
67054;SHT31;53960;51.826;5.850;2024-02-21T06:13:48;9.56;93.87
67054;SHT31;53960;51.826;5.850;2024-02-21T06:16:13;9.58;93.73
67054;SHT31;53960;51.826;5.850;2024-02-21T06:18:39;9.53;93.97
67054;SHT31;53960;51.826;5.850;2024-02-21T06:21:04;9.57;93.63
67054;SHT31;53960;51.826;5.850;2024-02-21T06:23:30;9.51;93.82
67054;SHT31;53960;51.826;5.850;2024-02-21T06:25:55;9.51;93.93
67054;SHT31;53960;51.826;5.850;2024-02-21T06:28:21;9.47;94.11
67054;SHT31;53960;51.826;5.850;2024-02-21T06:30:46;9.47;93.95
67054;SHT31;53960;51.826;5.850;2024-02-21T06:33:11;9.51;94.01
67054;SHT31;53960;51.826;5.850;2024-02-21T06:35:37;9.48;94.14
67054;SHT31;53960;51.826;5.850;2024-02-21T06:38:06;9.50;93.99
67054;SHT31;53960;51.826;5.850;2024-02-21T06:40:32;9.48;93.98
67054;SHT31;53960;51.826;5.850;2024-02-21T06:43:03;9.50;93.87
67054;SHT31;53960;51.826;5.850;2024-02-21T06:45:28;9.50;93.84
67054;SHT31;53960;51.826;5.850;2024-02-21T06:47:54;9.42;94.05
67054;SHT31;53960;51.826;5.850;2024-02-21T06:50:19;9.44;94.32
67054;SHT31;53960;51.826;5.850;2024-02-21T06:52:44;9.42;94.42
67054;SHT31;53960;51.826;5.850;2024-02-21T06:55:10;9.40;94.43
67054;SHT31;53960;51.826;5.850;2024-02-21T06:57:35;9.40;94.26
67054;SHT31;53960;51.826;5.850;2024-02-21T07:00:00;9.44;94.30
67054;SHT31;53960;51.826;5.850;2024-02-21T07:02:26;9.42;94.05
67054;SHT31;53960;51.826;5.850;2024-02-21T07:04:51;9.40;94.25
67054;SHT31;53960;51.826;5.850;2024-02-21T07:07:16;9.46;94.25
67054;SHT31;53960;51.826;5.850;2024-02-21T07:09:41;9.39;94.32
67054;SHT31;53960;51.826;5.850;2024-02-21T07:12:07;9.37;94.29
67054;SHT31;53960;51.826;5.850;2024-02-21T07:14:32;9.44;94.35
67054;SHT31;53960;51.826;5.850;2024-02-21T07:16:58;9.53;93.88
67054;SHT31;53960;51.826;5.850;2024-02-21T07:19:23;9.47;94.02
67054;SHT31;53960;51.826;5.850;2024-02-21T07:21:49;9.54;93.72
67054;SHT31;53960;51.826;5.850;2024-02-21T07:24:14;9.43;94.01
67054;SHT31;53960;51.826;5.850;2024-02-21T07:26:43;9.47;93.91
67054;SHT31;53960;51.826;5.850;2024-02-21T07:29:09;9.42;94.19
67054;SHT31;53960;51.826;5.850;2024-02-21T07:31:41;9.42;94.40
67054;SHT31;53960;51.826;5.850;2024-02-21T07:34:06;9.47;94.24
67054;SHT31;53960;51.826;5.850;2024-02-21T07:36:32;9.48;94.03
67054;SHT31;53960;51.826;5.850;2024-02-21T07:38:57;9.46;94.23
67054;SHT31;53960;51.826;5.850;2024-02-21T07:41:22;9.48;93.98
67054;SHT31;53960;51.826;5.850;2024-02-21T07:43:48;9.51;94.04
67054;SHT31;53960;51.826;5.850;2024-02-21T07:46:17;9.54;93.95
67054;SHT31;53960;51.826;5.850;2024-02-21T07:48:42;9.56;93.83
67054;SHT31;53960;51.826;5.850;2024-02-21T07:51:07;9.53;93.83
67054;SHT31;53960;51.826;5.850;2024-02-21T07:53:33;9.61;93.64
67054;SHT31;53960;51.826;5.850;2024-02-21T07:55:58;9.69;93.27
67054;SHT31;53960;51.826;5.850;2024-02-21T07:58:24;9.69;93.14
67054;SHT31;53960;51.826;5.850;2024-02-21T08:00:50;9.58;93.40
67054;SHT31;53960;51.826;5.850;2024-02-21T08:03:15;9.67;93.05
67054;SHT31;53960;51.826;5.850;2024-02-21T08:05:43;9.64;93.25
67054;SHT31;53960;51.826;5.850;2024-02-21T08:08:08;9.71;93.10
67054;SHT31;53960;51.826;5.850;2024-02-21T08:10:33;9.70;92.97
67054;SHT31;53960;51.826;5.850;2024-02-21T08:12:59;9.70;93.10
67054;SHT31;53960;51.826;5.850;2024-02-21T08:15:24;9.71;93.03
67054;SHT31;53960;51.826;5.850;2024-02-21T08:17:53;9.71;92.88
67054;SHT31;53960;51.826;5.850;2024-02-21T08:20:18;9.75;92.93
67054;SHT31;53960;51.826;5.850;2024-02-21T08:22:44;9.77;92.88
67054;SHT31;53960;51.826;5.850;2024-02-21T08:25:09;9.73;93.15
67054;SHT31;53960;51.826;5.850;2024-02-21T08:27:34;9.77;93.19
67054;SHT31;53960;51.826;5.850;2024-02-21T08:30:00;9.83;92.84
67054;SHT31;53960;51.826;5.850;2024-02-21T08:32:25;9.90;92.82
67054;SHT31;53960;51.826;5.850;2024-02-21T08:34:51;9.94;92.26
67054;SHT31;53960;51.826;5.850;2024-02-21T08:37:16;9.95;92.30
67054;SHT31;53960;51.826;5.850;2024-02-21T08:39:41;9.85;92.57
67054;SHT31;53960;51.826;5.850;2024-02-21T08:42:07;9.90;92.46
67054;SHT31;53960;51.826;5.850;2024-02-21T08:44:32;9.94;92.48
67054;SHT31;53960;51.826;5.850;2024-02-21T08:46:57;9.88;92.65
67054;SHT31;53960;51.826;5.850;2024-02-21T08:49:23;9.93;92.38
67054;SHT31;53960;51.826;5.850;2024-02-21T08:51:48;9.93;92.08
67054;SHT31;53960;51.826;5.850;2024-02-21T08:54:13;9.91;92.35
67054;SHT31;53960;51.826;5.850;2024-02-21T08:56:39;9.90;92.36
67054;SHT31;53960;51.826;5.850;2024-02-21T08:59:04;9.97;92.12
67054;SHT31;53960;51.826;5.850;2024-02-21T09:01:29;9.90;92.38
67054;SHT31;53960;51.826;5.850;2024-02-21T09:03:55;9.88;92.53
67054;SHT31;53960;51.826;5.850;2024-02-21T09:06:22;9.93;92.50
67054;SHT31;53960;51.826;5.850;2024-02-21T09:08:47;9.93;92.34
67054;SHT31;53960;51.826;5.850;2024-02-21T09:11:13;9.95;92.24
67054;SHT31;53960;51.826;5.850;2024-02-21T09:13:38;9.98;91.90
67054;SHT31;53960;51.826;5.850;2024-02-21T09:16:04;9.97;92.26
67054;SHT31;53960;51.826;5.850;2024-02-21T09:18:29;10.08;91.75
67054;SHT31;53960;51.826;5.850;2024-02-21T09:20:55;10.11;91.34
67054;SHT31;53960;51.826;5.850;2024-02-21T09:23:20;10.09;91.58
67054;SHT31;53960;51.826;5.850;2024-02-21T09:25:45;10.12;91.91
67054;SHT31;53960;51.826;5.850;2024-02-21T09:28:12;10.16;91.69
67054;SHT31;53960;51.826;5.850;2024-02-21T09:30:38;10.22;91.31
67054;SHT31;53960;51.826;5.850;2024-02-21T09:33:04;10.25;91.05
67054;SHT31;53960;51.826;5.850;2024-02-21T09:35:30;10.29;90.95
67054;SHT31;53960;51.826;5.850;2024-02-21T09:37:55;10.34;90.97
67054;SHT31;53960;51.826;5.850;2024-02-21T09:40:21;10.34;91.09
67054;SHT31;53960;51.826;5.850;2024-02-21T09:42:47;10.36;91.17
67054;SHT31;53960;51.826;5.850;2024-02-21T09:45:24;10.36;90.82
67054;SHT31;53960;51.826;5.850;2024-02-21T09:50:38;10.32;91.44
67054;SHT31;53960;51.826;5.850;2024-02-21T09:53:06;10.29;91.56
67054;SHT31;53960;51.826;5.850;2024-02-21T09:55:33;10.26;91.56
67054;SHT31;53960;51.826;5.850;2024-02-21T09:58:01;10.24;91.90
67054;SHT31;53960;51.826;5.850;2024-02-21T10:00:26;10.26;91.68
67054;SHT31;53960;51.826;5.850;2024-02-21T10:02:53;10.25;91.90
67054;SHT31;53960;51.826;5.850;2024-02-21T10:05:18;10.31;91.94
67054;SHT31;53960;51.826;5.850;2024-02-21T10:07:43;10.28;92.13
67054;SHT31;53960;51.826;5.850;2024-02-21T10:10:09;10.24;92.36
67054;SHT31;53960;51.826;5.850;2024-02-21T10:12:35;10.21;92.59
67054;SHT31;53960;51.826;5.850;2024-02-21T10:15:05;10.14;93.20
67054;SHT31;53960;51.826;5.850;2024-02-21T10:17:31;10.11;93.80
67054;SHT31;53960;51.826;5.850;2024-02-21T10:20:09;10.06;94.12
67054;SHT31;53960;51.826;5.850;2024-02-21T10:22:35;10.05;94.69
67054;SHT31;53960;51.826;5.850;2024-02-21T10:25:11;10.02;94.99
67054;SHT31;53960;51.826;5.850;2024-02-21T10:27:37;9.84;95.58
67054;SHT31;53960;51.826;5.850;2024-02-21T10:30:07;9.85;96.03
67054;SHT31;53960;51.826;5.850;2024-02-21T10:32:33;9.83;96.01
67054;SHT31;53960;51.826;5.850;2024-02-21T10:35:03;9.85;96.08
67054;SHT31;53960;51.826;5.850;2024-02-21T10:37:29;9.78;96.29
67054;SHT31;53960;51.826;5.850;2024-02-21T10:39:55;9.78;96.32
67054;SHT31;53960;51.826;5.850;2024-02-21T10:42:22;9.84;95.80
67054;SHT31;53960;51.826;5.850;2024-02-21T10:44:50;9.85;95.79
67054;SHT31;53960;51.826;5.850;2024-02-21T10:47:16;9.87;95.98
67054;SHT31;53960;51.826;5.850;2024-02-21T10:49:49;9.95;95.50
67054;SHT31;53960;51.826;5.850;2024-02-21T10:52:43;10.01;95.00
67054;SHT31;53960;51.826;5.850;2024-02-21T10:55:16;10.01;94.46
67054;SHT31;53960;51.826;5.850;2024-02-21T10:57:45;10.04;94.28
67054;SHT31;53960;51.826;5.850;2024-02-21T11:00:12;10.12;93.92
67054;SHT31;53960;51.826;5.850;2024-02-21T11:02:40;10.15;93.69
67054;SHT31;53960;51.826;5.850;2024-02-21T11:05:06;10.21;93.23
67054;SHT31;53960;51.826;5.850;2024-02-21T11:07:32;10.29;92.90
67054;SHT31;53960;51.826;5.850;2024-02-21T11:09:58;10.31;92.77
67054;SHT31;53960;51.826;5.850;2024-02-21T11:12:24;10.32;92.48
67054;SHT31;53960;51.826;5.850;2024-02-21T11:14:51;10.31;92.50
67054;SHT31;53960;51.826;5.850;2024-02-21T11:17:17;10.25;92.39
67054;SHT31;53960;51.826;5.850;2024-02-21T11:19:43;10.29;92.49
67054;SHT31;53960;51.826;5.850;2024-02-21T11:22:16;10.35;92.46
67054;SHT31;53960;51.826;5.850;2024-02-21T11:24:42;10.42;92.05
67054;SHT31;53960;51.826;5.850;2024-02-21T11:27:20;10.41;92.14
67054;SHT31;53960;51.826;5.850;2024-02-21T11:29:54;10.34;91.85
67054;SHT31;53960;51.826;5.850;2024-02-21T11:32:20;10.39;91.75
67054;SHT31;53960;51.826;5.850;2024-02-21T11:35:00;10.48;91.56
67054;SHT31;53960;51.826;5.850;2024-02-21T11:37:27;10.48;91.38
67054;SHT31;53960;51.826;5.850;2024-02-21T11:39:54;10.50;91.25
67054;SHT31;53960;51.826;5.850;2024-02-21T11:42:19;10.45;91.36
67054;SHT31;53960;51.826;5.850;2024-02-21T11:44:45;10.53;91.20
67054;SHT31;53960;51.826;5.850;2024-02-21T11:47:10;10.45;90.57
67054;SHT31;53960;51.826;5.850;2024-02-21T11:49:38;10.39;90.76
67054;SHT31;53960;51.826;5.850;2024-02-21T11:52:06;10.42;90.82
67054;SHT31;53960;51.826;5.850;2024-02-21T11:54:32;10.42;90.99
67054;SHT31;53960;51.826;5.850;2024-02-21T11:56:58;10.53;90.22
67054;SHT31;53960;51.826;5.850;2024-02-21T11:59:23;10.59;89.66
67054;SHT31;53960;51.826;5.850;2024-02-21T12:01:49;10.63;89.44
67054;SHT31;53960;51.826;5.850;2024-02-21T12:04:15;10.62;89.46
67054;SHT31;53960;51.826;5.850;2024-02-21T12:06:44;10.60;89.80
67054;SHT31;53960;51.826;5.850;2024-02-21T12:09:09;10.66;89.72
67054;SHT31;53960;51.826;5.850;2024-02-21T12:11:34;10.74;89.28
67054;SHT31;53960;51.826;5.850;2024-02-21T12:14:03;10.73;89.42
67054;SHT31;53960;51.826;5.850;2024-02-21T12:16:33;10.74;89.09
67054;SHT31;53960;51.826;5.850;2024-02-21T12:18:59;10.70;89.30
67054;SHT31;53960;51.826;5.850;2024-02-21T12:21:26;10.73;89.06
67054;SHT31;53960;51.826;5.850;2024-02-21T12:23:54;10.85;88.79
67054;SHT31;53960;51.826;5.850;2024-02-21T12:26:20;10.94;88.71
67054;SHT31;53960;51.826;5.850;2024-02-21T12:28:45;11.00;88.46
67054;SHT31;53960;51.826;5.850;2024-02-21T12:31:10;11.11;88.43
67054;SHT31;53960;51.826;5.850;2024-02-21T12:33:36;11.01;88.03
67054;SHT31;53960;51.826;5.850;2024-02-21T12:36:01;11.08;88.38
67054;SHT31;53960;51.826;5.850;2024-02-21T12:38:29;11.20;88.52
67054;SHT31;53960;51.826;5.850;2024-02-21T12:40:54;11.20;88.07
67054;SHT31;53960;51.826;5.850;2024-02-21T12:43:20;11.18;88.03
67054;SHT31;53960;51.826;5.850;2024-02-21T12:45:45;11.17;88.18
67054;SHT31;53960;51.826;5.850;2024-02-21T12:48:10;11.30;87.60
67054;SHT31;53960;51.826;5.850;2024-02-21T12:50:35;11.31;87.79
67054;SHT31;53960;51.826;5.850;2024-02-21T12:53:01;11.42;87.67
67054;SHT31;53960;51.826;5.850;2024-02-21T12:55:26;11.34;87.35
67054;SHT31;53960;51.826;5.850;2024-02-21T12:57:52;11.44;87.79
67054;SHT31;53960;51.826;5.850;2024-02-21T13:00:17;11.44;87.71
67054;SHT31;53960;51.826;5.850;2024-02-21T13:02:42;11.44;87.56
67054;SHT31;53960;51.826;5.850;2024-02-21T13:05:08;11.41;87.68
67054;SHT31;53960;51.826;5.850;2024-02-21T13:07:34;11.42;87.41
67054;SHT31;53960;51.826;5.850;2024-02-21T13:09:59;11.44;87.71
67054;SHT31;53960;51.826;5.850;2024-02-21T13:12:25;11.48;87.92
67054;SHT31;53960;51.826;5.850;2024-02-21T13:14:53;11.51;87.44
67054;SHT31;53960;51.826;5.850;2024-02-21T13:17:19;11.48;87.04
67054;SHT31;53960;51.826;5.850;2024-02-21T13:19:44;11.45;87.45
67054;SHT31;53960;51.826;5.850;2024-02-21T13:22:10;11.50;87.23
67054;SHT31;53960;51.826;5.850;2024-02-21T13:24:36;11.50;87.00
67054;SHT31;53960;51.826;5.850;2024-02-21T13:27:01;11.52;86.73
67054;SHT31;53960;51.826;5.850;2024-02-21T13:29:28;11.50;87.13
67054;SHT31;53960;51.826;5.850;2024-02-21T13:31:53;11.46;86.76
67054;SHT31;53960;51.826;5.850;2024-02-21T13:34:19;11.55;86.65
67054;SHT31;53960;51.826;5.850;2024-02-21T13:36:44;11.59;86.50
67054;SHT31;53960;51.826;5.850;2024-02-21T13:39:10;11.59;86.24
67054;SHT31;53960;51.826;5.850;2024-02-21T13:41:40;11.66;86.38
67054;SHT31;53960;51.826;5.850;2024-02-21T13:44:05;11.69;86.39
67054;SHT31;53960;51.826;5.850;2024-02-21T13:46:31;11.65;86.04
67054;SHT31;53960;51.826;5.850;2024-02-21T13:49:03;11.65;85.71
67054;SHT31;53960;51.826;5.850;2024-02-21T13:51:34;11.61;85.73
67054;SHT31;53960;51.826;5.850;2024-02-21T13:54:04;11.62;86.17
67054;SHT31;53960;51.826;5.850;2024-02-21T13:56:30;11.71;85.90
67054;SHT31;53960;51.826;5.850;2024-02-21T13:58:55;11.63;85.28
67054;SHT31;53960;51.826;5.850;2024-02-21T14:01:21;11.69;84.91
67054;SHT31;53960;51.826;5.850;2024-02-21T14:03:46;11.73;84.16
67054;SHT31;53960;51.826;5.850;2024-02-21T14:06:12;11.68;84.29
67054;SHT31;53960;51.826;5.850;2024-02-21T14:08:37;11.63;84.59
67054;SHT31;53960;51.826;5.850;2024-02-21T14:11:05;11.62;83.57
67054;SHT31;53960;51.826;5.850;2024-02-21T14:13:31;11.62;83.88
67054;SHT31;53960;51.826;5.850;2024-02-21T14:15:56;11.58;84.24
67054;SHT31;53960;51.826;5.850;2024-02-21T14:18:22;11.58;83.80
67054;SHT31;53960;51.826;5.850;2024-02-21T14:20:47;11.48;84.15
67054;SHT31;53960;51.826;5.850;2024-02-21T14:23:13;11.50;84.29
67054;SHT31;53960;51.826;5.850;2024-02-21T14:25:38;11.54;84.23
67054;SHT31;53960;51.826;5.850;2024-02-21T14:28:05;11.50;84.42
67054;SHT31;53960;51.826;5.850;2024-02-21T14:30:30;11.45;84.39
67054;SHT31;53960;51.826;5.850;2024-02-21T14:32:55;11.48;84.19
67054;SHT31;53960;51.826;5.850;2024-02-21T14:35:21;11.44;84.57
67054;SHT31;53960;51.826;5.850;2024-02-21T14:37:46;11.31;84.88
67054;SHT31;53960;51.826;5.850;2024-02-21T14:40:14;11.38;84.69
67054;SHT31;53960;51.826;5.850;2024-02-21T14:42:39;11.35;84.98
67054;SHT31;53960;51.826;5.850;2024-02-21T14:45:05;11.34;85.10
67054;SHT31;53960;51.826;5.850;2024-02-21T14:47:32;11.35;85.31
67054;SHT31;53960;51.826;5.850;2024-02-21T14:49:57;11.35;85.35
67054;SHT31;53960;51.826;5.850;2024-02-21T14:52:23;11.30;85.49
67054;SHT31;53960;51.826;5.850;2024-02-21T14:54:50;11.28;85.54
67054;SHT31;53960;51.826;5.850;2024-02-21T14:57:17;11.35;85.04
67054;SHT31;53960;51.826;5.850;2024-02-21T14:59:43;11.24;85.34
67054;SHT31;53960;51.826;5.850;2024-02-21T15:02:08;11.31;85.55
67054;SHT31;53960;51.826;5.850;2024-02-21T15:04:34;11.23;85.66
67054;SHT31;53960;51.826;5.850;2024-02-21T15:07:01;11.23;85.92
67054;SHT31;53960;51.826;5.850;2024-02-21T15:09:27;11.23;86.21
67054;SHT31;53960;51.826;5.850;2024-02-21T15:11:53;11.20;86.69
67054;SHT31;53960;51.826;5.850;2024-02-21T15:14:18;11.17;87.51
67054;SHT31;53960;51.826;5.850;2024-02-21T15:16:43;11.10;87.65
67054;SHT31;53960;51.826;5.850;2024-02-21T15:19:09;11.10;88.29
67054;SHT31;53960;51.826;5.850;2024-02-21T15:21:35;11.08;88.59
67054;SHT31;53960;51.826;5.850;2024-02-21T15:24:00;10.96;88.99
67054;SHT31;53960;51.826;5.850;2024-02-21T15:26:26;10.92;89.60
67054;SHT31;53960;51.826;5.850;2024-02-21T15:28:52;10.83;89.46
67054;SHT31;53960;51.826;5.850;2024-02-21T15:31:21;10.76;89.93
67054;SHT31;53960;51.826;5.850;2024-02-21T15:33:48;10.72;90.32
67054;SHT31;53960;51.826;5.850;2024-02-21T15:36:13;10.70;90.50